Terminal Aerodrome Forecast
Issued by NWS

Home | Current Version | Previous Version | Graphics & Text | Print | Product List | Glossary On
Versions: 1 2 3 4 5 6 7 8 9 10 11 12 13
000
FTUS43 KICT 191700
TAFSLN
TAF
KSLN 191720Z 1918/2018 18008KT P6SM SCT200
     FM192000 18011G18KT P6SM SCT150
     FM200100 17010KT P6SM SCT200=

USA.gov is the U.S. government's official web portal to all federal, state and local government web resources and services.